TAF and METAR

Could not understand the following METAR

YPLM 141500Z AUTO 23011KT 9999 // NCD 21/18 Q1009

TAF for Learmonth Airport

TAF YPLM 141108Z 1412/1512 23020KT CAVOK FM141600 22014KT 9999 BKN012 FM150000 21014KT 9999 SCT020 FM150300 23018KT CAVOK
Report created 14. des 12:08

between 14. des 13:00 - 15. des 13:00

wind 20 knots from SW (230°) Clear sky

From 14. des 17:00

wind 14 knots from SW (220°) visibility > 10km broken clouds (~75% cover) at 1200 feet

From 15. des 01:00

wind 14 knots from SSW (210°) visibility > 10km scattered clouds (~50% cover) at 2000 feet

From 15. des 04:00

wind 18 knots from SW (230°) Clear sky
Learmonth Airport in Australia at 6m

Latest 5 airports